SPTN/TCQ METAR and TAF weather

Enter ICAO airport designator
Station Type Date Time Source
SPTN METAR 2019/07/20 05:00 UTC NOAA

SPTN 200500Z 22004KT 3500 BR OVC010 13/11 Q1014 RMK PP000


Station Type Date Time Source
SPTN Decoded METAR 2019/07/20 05:00 UTC NOAA

Tacna, Peru (SPTN) 18-04S 070-18W 469M
Jul 20, 2019 - 01:00 AM EDT / 2019.07.20 0500 UTC
Wind: from the SW (220 degrees) at 5 MPH (4 KT):0
Visibility: 2 mile(s):0
Sky conditions: overcast
Weather: mist
Temperature: 55 F (13 C)
Dew Point: 51 F (11 C)
Relative Humidity: 87%
Pressure (altimeter): 29.94 in. Hg (1014 hPa)
ob: SPTN 200500Z 22004KT 3500 BR OVC010 13/11 Q1014 RMK PP000
cycle: 5

Station Type Date Time Source
SPTN TAF 2019/07/20 06:33 UTC NOAA

TAF TAF SPTN 200500Z 2006/2106 22004KT 3500 BR OVC010 TX19/2019Z TN12/2011Z
TEMPO 2008/2010 2000
FM201330 25004KT 9999 BKN030
FM201700 22009KT CAVOK

Example: see airport list